<?xml version="1.0" encoding="utf-8"?>
<gpx xmlns:xsi="http://www.w3.org/2001/XMLSchema-instance" xmlns:xsd="http://www.w3.org/2001/XMLSchema" version="1.1" creator="Shapelink.com" xmlns="http://www.topografix.com/GPX/1/1" xmlns:gpxtpx="http://www.garmin.com/xmlschemas/TrackPointExtension/v1">
  <metadata>
    <name>Cykling 12.68 km, 2019-08-26</name>
    <desc></desc>
    <author><name>Henrik Staffas</name></author> 
    <time>2019-08-26T17:16:50Z</time>
  </metadata>
  <trk>
    <name>Cykling 12.68 km, 2019-08-26</name>
    <trkseg>
      <trkpt lat="59.333517704033" lon="18.017982691172">
        <ele>70.6</ele>
        <time>2019-08-26T17:16:50Z</time>
      </trkpt>
      <trkpt lat="59.333493899437" lon="18.017944637346">
        <ele>70.2</ele>
        <time>2019-08-26T17:16:53Z</time>
      </trkpt>
      <trkpt lat="59.333481158949" lon="18.017908008443">
        <ele>70.6</ele>
        <time>2019-08-26T17:16:55Z</time>
      </trkpt>
      <trkpt lat="59.33330170247" lon="18.017585221474">
        <ele>69.6</ele>
        <time>2019-08-26T17:17:05Z</time>
      </trkpt>
      <trkpt lat="59.333202879869" lon="18.017398388923">
        <ele>70.6</ele>
        <time>2019-08-26T17:17:10Z</time>
      </trkpt>
      <trkpt lat="59.333193240684" lon="18.017289508042">
        <ele>70.8</ele>
        <time>2019-08-26T17:17:12Z</time>
      </trkpt>
      <trkpt lat="59.333517620214" lon="18.01637269582">
        <ele>71.2</ele>
        <time>2019-08-26T17:17:28Z</time>
      </trkpt>
      <trkpt lat="59.333953395195" lon="18.015804905914">
        <ele>71.2</ele>
        <time>2019-08-26T17:17:42Z</time>
      </trkpt>
      <trkpt lat="59.334155482804" lon="18.015469797552">
        <ele>71.8</ele>
        <time>2019-08-26T17:17:48Z</time>
      </trkpt>
      <trkpt lat="59.33449947598" lon="18.01496705119">
        <ele>72.6</ele>
        <time>2019-08-26T17:17:57Z</time>
      </trkpt>
      <trkpt lat="59.334620426797" lon="18.014719617502">
        <ele>72.6</ele>
        <time>2019-08-26T17:18:00Z</time>
      </trkpt>
      <trkpt lat="59.334850845228" lon="18.014237909709">
        <ele>72.6</ele>
        <time>2019-08-26T17:18:06Z</time>
      </trkpt>
      <trkpt lat="59.33514907323" lon="18.013673472563">
        <ele>72.4</ele>
        <time>2019-08-26T17:18:17Z</time>
      </trkpt>
      <trkpt lat="59.335166842858" lon="18.01365193108">
        <ele>72.6</ele>
        <time>2019-08-26T17:18:19Z</time>
      </trkpt>
      <trkpt lat="59.335192407653" lon="18.01368797325">
        <ele>72.8</ele>
        <time>2019-08-26T17:18:23Z</time>
      </trkpt>
      <trkpt lat="59.335236328809" lon="18.013749412577">
        <ele>73.4</ele>
        <time>2019-08-26T17:18:26Z</time>
      </trkpt>
      <trkpt lat="59.335328026795" lon="18.013827364247">
        <ele>74.2</ele>
        <time>2019-08-26T17:18:29Z</time>
      </trkpt>
      <trkpt lat="59.335476637882" lon="18.014034229539">
        <ele>75.4</ele>
        <time>2019-08-26T17:18:34Z</time>
      </trkpt>
      <trkpt lat="59.335587865695" lon="18.014382665122">
        <ele>76.6</ele>
        <time>2019-08-26T17:18:39Z</time>
      </trkpt>
      <trkpt lat="59.335671097962" lon="18.014613837924">
        <ele>77.8</ele>
        <time>2019-08-26T17:18:42Z</time>
      </trkpt>
      <trkpt lat="59.335748965813" lon="18.014816428447">
        <ele>79</ele>
        <time>2019-08-26T17:18:45Z</time>
      </trkpt>
      <trkpt lat="59.33577436297" lon="18.014865797838">
        <ele>79.2</ele>
        <time>2019-08-26T17:18:46Z</time>
      </trkpt>
      <trkpt lat="59.335860277445" lon="18.015083056686">
        <ele>80</ele>
        <time>2019-08-26T17:18:49Z</time>
      </trkpt>
      <trkpt lat="59.335913418691" lon="18.015242312786">
        <ele>80.4</ele>
        <time>2019-08-26T17:18:51Z</time>
      </trkpt>
      <trkpt lat="59.335969158326" lon="18.015393186986">
        <ele>80.6</ele>
        <time>2019-08-26T17:18:53Z</time>
      </trkpt>
      <trkpt lat="59.336042080856" lon="18.015513131975">
        <ele>81.4</ele>
        <time>2019-08-26T17:18:55Z</time>
      </trkpt>
      <trkpt lat="59.336186417174" lon="18.015623270141">
        <ele>82.6</ele>
        <time>2019-08-26T17:18:58Z</time>
      </trkpt>
      <trkpt lat="59.336301081566" lon="18.015780766042">
        <ele>84</ele>
        <time>2019-08-26T17:19:01Z</time>
      </trkpt>
      <trkpt lat="59.336390097344" lon="18.016128531073">
        <ele>85.2</ele>
        <time>2019-08-26T17:19:05Z</time>
      </trkpt>
      <trkpt lat="59.336591682039" lon="18.016456011906">
        <ele>86.4</ele>
        <time>2019-08-26T17:19:11Z</time>
      </trkpt>
      <trkpt lat="59.336782454083" lon="18.016771590441">
        <ele>87.6</ele>
        <time>2019-08-26T17:19:17Z</time>
      </trkpt>
      <trkpt lat="59.337108426174" lon="18.016837807451">
        <ele>88</ele>
        <time>2019-08-26T17:19:24Z</time>
      </trkpt>
      <trkpt lat="59.337266927903" lon="18.016639826973">
        <ele>87.8</ele>
        <time>2019-08-26T17:19:27Z</time>
      </trkpt>
      <trkpt lat="59.337420400492" lon="18.016267754432">
        <ele>88</ele>
        <time>2019-08-26T17:19:32Z</time>
      </trkpt>
      <trkpt lat="59.337774954862" lon="18.015466277154">
        <ele>88</ele>
        <time>2019-08-26T17:19:42Z</time>
      </trkpt>
      <trkpt lat="59.338002523447" lon="18.01486060106">
        <ele>85.8</ele>
        <time>2019-08-26T17:19:47Z</time>
      </trkpt>
      <trkpt lat="59.338083744058" lon="18.014598834323">
        <ele>84.6</ele>
        <time>2019-08-26T17:19:49Z</time>
      </trkpt>
      <trkpt lat="59.338214417879" lon="18.014271185852">
        <ele>83.6</ele>
        <time>2019-08-26T17:19:52Z</time>
      </trkpt>
      <trkpt lat="59.338339308189" lon="18.013995253704">
        <ele>82.4</ele>
        <time>2019-08-26T17:19:55Z</time>
      </trkpt>
      <trkpt lat="59.338479621195" lon="18.013800206891">
        <ele>81.6</ele>
        <time>2019-08-26T17:19:58Z</time>
      </trkpt>
      <trkpt lat="59.338531086061" lon="18.013787047308">
        <ele>81.4</ele>
        <time>2019-08-26T17:19:59Z</time>
      </trkpt>
      <trkpt lat="59.338579449624" lon="18.013821329279">
        <ele>81.2</ele>
        <time>2019-08-26T17:20:00Z</time>
      </trkpt>
      <trkpt lat="59.338667208117" lon="18.013947476874">
        <ele>81.2</ele>
        <time>2019-08-26T17:20:02Z</time>
      </trkpt>
      <trkpt lat="59.338855381772" lon="18.014287698195">
        <ele>80</ele>
        <time>2019-08-26T17:20:07Z</time>
      </trkpt>
      <trkpt lat="59.338867703165" lon="18.014589111319">
        <ele>79.4</ele>
        <time>2019-08-26T17:20:09Z</time>
      </trkpt>
      <trkpt lat="59.338924867723" lon="18.014732860904">
        <ele>78.8</ele>
        <time>2019-08-26T17:20:11Z</time>
      </trkpt>
      <trkpt lat="59.339019164098" lon="18.015029663983">
        <ele>77.4</ele>
        <time>2019-08-26T17:20:15Z</time>
      </trkpt>
      <trkpt lat="59.339100803804" lon="18.015177939794">
        <ele>76.2</ele>
        <time>2019-08-26T17:20:18Z</time>
      </trkpt>
      <trkpt lat="59.339133577033" lon="18.015440796178">
        <ele>74.8</ele>
        <time>2019-08-26T17:20:21Z</time>
      </trkpt>
      <trkpt lat="59.339168864832" lon="18.015614050051">
        <ele>73.6</ele>
        <time>2019-08-26T17:20:24Z</time>
      </trkpt>
      <trkpt lat="59.339258215886" lon="18.015706753865">
        <ele>72.6</ele>
        <time>2019-08-26T17:20:29Z</time>
      </trkpt>
      <trkpt lat="59.339335916099" lon="18.01561748663">
        <ele>72.2</ele>
        <time>2019-08-26T17:20:31Z</time>
      </trkpt>
      <trkpt lat="59.339486790299" lon="18.015362509232">
        <ele>71.4</ele>
        <time>2019-08-26T17:20:33Z</time>
      </trkpt>
      <trkpt lat="59.339674209583" lon="18.015011726717">
        <ele>70.4</ele>
        <time>2019-08-26T17:20:36Z</time>
      </trkpt>
      <trkpt lat="59.339872692975" lon="18.014453827453">
        <ele>69.2</ele>
        <time>2019-08-26T17:20:40Z</time>
      </trkpt>
      <trkpt lat="59.340030440333" lon="18.013785706204">
        <ele>68.6</ele>
        <time>2019-08-26T17:20:45Z</time>
      </trkpt>
      <trkpt lat="59.340122976509" lon="18.013313469958">
        <ele>69.2</ele>
        <time>2019-08-26T17:20:49Z</time>
      </trkpt>
      <trkpt lat="59.340218949264" lon="18.013038459819">
        <ele>69.4</ele>
        <time>2019-08-26T17:20:52Z</time>
      </trkpt>
      <trkpt lat="59.340309892879" lon="18.012971069343">
        <ele>69.4</ele>
        <time>2019-08-26T17:20:54Z</time>
      </trkpt>
      <trkpt lat="59.340407709652" lon="18.012978529234">
        <ele>69.4</ele>
        <time>2019-08-26T17:20:56Z</time>
      </trkpt>
      <trkpt lat="59.340645839431" lon="18.013117668774">
        <ele>70.4</ele>
        <time>2019-08-26T17:21:01Z</time>
      </trkpt>
      <trkpt lat="59.340842814081" lon="18.013143736483">
        <ele>70.8</ele>
        <time>2019-08-26T17:21:05Z</time>
      </trkpt>
      <trkpt lat="59.340918418819" lon="18.012975260293">
        <ele>70.4</ele>
        <time>2019-08-26T17:21:08Z</time>
      </trkpt>
      <trkpt lat="59.340984803467" lon="18.012831845984">
        <ele>70</ele>
        <time>2019-08-26T17:21:10Z</time>
      </trkpt>
      <trkpt lat="59.341041297473" lon="18.012656245179">
        <ele>69.4</ele>
        <time>2019-08-26T17:21:12Z</time>
      </trkpt>
      <trkpt lat="59.341060072929" lon="18.012552728714">
        <ele>69.2</ele>
        <time>2019-08-26T17:21:13Z</time>
      </trkpt>
      <trkpt lat="59.341247659851" lon="18.011559557383">
        <ele>69</ele>
        <time>2019-08-26T17:21:22Z</time>
      </trkpt>
      <trkpt lat="59.341327036444" lon="18.011333916635">
        <ele>69</ele>
        <time>2019-08-26T17:21:24Z</time>
      </trkpt>
      <trkpt lat="59.341463577595" lon="18.011033509339">
        <ele>68.6</ele>
        <time>2019-08-26T17:21:27Z</time>
      </trkpt>
      <trkpt lat="59.341654182001" lon="18.010692533647">
        <ele>68.2</ele>
        <time>2019-08-26T17:21:31Z</time>
      </trkpt>
      <trkpt lat="59.341881750586" lon="18.010425486313">
        <ele>67.8</ele>
        <time>2019-08-26T17:21:35Z</time>
      </trkpt>
      <trkpt lat="59.3420331277" lon="18.010208059827">
        <ele>67.8</ele>
        <time>2019-08-26T17:21:38Z</time>
      </trkpt>
      <trkpt lat="59.342147372997" lon="18.010006726589">
        <ele>68.2</ele>
        <time>2019-08-26T17:21:41Z</time>
      </trkpt>
      <trkpt lat="59.34254107084" lon="18.009596432584">
        <ele>68.4</ele>
        <time>2019-08-26T17:21:50Z</time>
      </trkpt>
      <trkpt lat="59.3430808652" lon="18.009499789277">
        <ele>67.6</ele>
        <time>2019-08-26T17:22:01Z</time>
      </trkpt>
      <trkpt lat="59.343154123006" lon="18.00937632389">
        <ele>67</ele>
        <time>2019-08-26T17:22:04Z</time>
      </trkpt>
      <trkpt lat="59.343385211989" lon="18.008769893425">
        <ele>66</ele>
        <time>2019-08-26T17:22:10Z</time>
      </trkpt>
      <trkpt lat="59.34377907747" lon="18.007920806955">
        <ele>65.4</ele>
        <time>2019-08-26T17:22:20Z</time>
      </trkpt>
      <trkpt lat="59.34423170007" lon="18.007501963412">
        <ele>65.6</ele>
        <time>2019-08-26T17:22:30Z</time>
      </trkpt>
      <trkpt lat="59.344609053208" lon="18.007401883526">
        <ele>67</ele>
        <time>2019-08-26T17:22:40Z</time>
      </trkpt>
      <trkpt lat="59.344708462542" lon="18.007410013969">
        <ele>67.2</ele>
        <time>2019-08-26T17:22:42Z</time>
      </trkpt>
      <trkpt lat="59.344812314283" lon="18.00741831205">
        <ele>67.2</ele>
        <time>2019-08-26T17:22:44Z</time>
      </trkpt>
      <trkpt lat="59.345070644441" lon="18.007576981417">
        <ele>66.8</ele>
        <time>2019-08-26T17:22:48Z</time>
      </trkpt>
      <trkpt lat="59.345546652542" lon="18.007946204112">
        <ele>66</ele>
        <time>2019-08-26T17:22:55Z</time>
      </trkpt>
      <trkpt lat="59.346071359482" lon="18.008370747347">
        <ele>66.8</ele>
        <time>2019-08-26T17:23:02Z</time>
      </trkpt>
      <trkpt lat="59.346226173175" lon="18.008492536354">
        <ele>67</ele>
        <time>2019-08-26T17:23:04Z</time>
      </trkpt>
      <trkpt lat="59.346792035244" lon="18.008912553363">
        <ele>68</ele>
        <time>2019-08-26T17:23:11Z</time>
      </trkpt>
      <trkpt lat="59.34732126841" lon="18.009322763549">
        <ele>68.8</ele>
        <time>2019-08-26T17:23:18Z</time>
      </trkpt>
      <trkpt lat="59.347391927827" lon="18.009361320289">
        <ele>69</ele>
        <time>2019-08-26T17:23:19Z</time>
      </trkpt>
      <trkpt lat="59.347477590845" lon="18.009387890912">
        <ele>69.2</ele>
        <time>2019-08-26T17:23:20Z</time>
      </trkpt>
      <trkpt lat="59.347977906456" lon="18.009213379754">
        <ele>70.2</ele>
        <time>2019-08-26T17:23:27Z</time>
      </trkpt>
      <trkpt lat="59.348264651255" lon="18.008831751847">
        <ele>71.4</ele>
        <time>2019-08-26T17:23:32Z</time>
      </trkpt>
      <trkpt lat="59.348395492714" lon="18.008576858268">
        <ele>72.6</ele>
        <time>2019-08-26T17:23:35Z</time>
      </trkpt>
      <trkpt lat="59.348481993922" lon="18.008550790559">
        <ele>73</ele>
        <time>2019-08-26T17:23:37Z</time>
      </trkpt>
      <trkpt lat="59.348560197049" lon="18.008620947062">
        <ele>73</ele>
        <time>2019-08-26T17:23:39Z</time>
      </trkpt>
      <trkpt lat="59.348766643246" lon="18.009258390557">
        <ele>73.8</ele>
        <time>2019-08-26T17:23:46Z</time>
      </trkpt>
      <trkpt lat="59.348759518631" lon="18.009572627988">
        <ele>74.8</ele>
        <time>2019-08-26T17:23:50Z</time>
      </trkpt>
      <trkpt lat="59.348771923843" lon="18.009686621828">
        <ele>74.8</ele>
        <time>2019-08-26T17:23:51Z</time>
      </trkpt>
      <trkpt lat="59.348947273191" lon="18.010523219267">
        <ele>75.8</ele>
        <time>2019-08-26T17:23:59Z</time>
      </trkpt>
      <trkpt lat="59.348973089443" lon="18.010602428222">
        <ele>75.8</ele>
        <time>2019-08-26T17:24:00Z</time>
      </trkpt>
      <trkpt lat="59.349031846562" lon="18.010826057314">
        <ele>76.2</ele>
        <time>2019-08-26T17:24:03Z</time>
      </trkpt>
      <trkpt lat="59.349116922847" lon="18.011131158474">
        <ele>76</ele>
        <time>2019-08-26T17:24:07Z</time>
      </trkpt>
      <trkpt lat="59.349391010977" lon="18.011754855653">
        <ele>76.8</ele>
        <time>2019-08-26T17:24:16Z</time>
      </trkpt>
      <trkpt lat="59.349513721993" lon="18.011985106446">
        <ele>77</ele>
        <time>2019-08-26T17:24:19Z</time>
      </trkpt>
      <trkpt lat="59.349560409176" lon="18.012053167474">
        <ele>77</ele>
        <time>2019-08-26T17:24:20Z</time>
      </trkpt>
      <trkpt lat="59.349657555397" lon="18.012172441911">
        <ele>77.4</ele>
        <time>2019-08-26T17:24:22Z</time>
      </trkpt>
      <trkpt lat="59.349902474515" lon="18.012334044943">
        <ele>77.6</ele>
        <time>2019-08-26T17:24:26Z</time>
      </trkpt>
      <trkpt lat="59.350031639594" lon="18.012350473467">
        <ele>77.8</ele>
        <time>2019-08-26T17:24:28Z</time>
      </trkpt>
      <trkpt lat="59.350095509672" lon="18.012340247549">
        <ele>78</ele>
        <time>2019-08-26T17:24:29Z</time>
      </trkpt>
      <trkpt lat="59.350339255324" lon="18.012256931463">
        <ele>79.2</ele>
        <time>2019-08-26T17:24:33Z</time>
      </trkpt>
      <trkpt lat="59.350562130045" lon="18.012110834946">
        <ele>80.2</ele>
        <time>2019-08-26T17:24:37Z</time>
      </trkpt>
      <trkpt lat="59.350784418033" lon="18.011938922177">
        <ele>81.2</ele>
        <time>2019-08-26T17:24:41Z</time>
      </trkpt>
      <trkpt lat="59.350978961932" lon="18.011778241154">
        <ele>82.4</ele>
        <time>2019-08-26T17:24:45Z</time>
      </trkpt>
      <trkpt lat="59.351270987328" lon="18.011388231347">
        <ele>83.2</ele>
        <time>2019-08-26T17:24:51Z</time>
      </trkpt>
      <trkpt lat="59.351832239352" lon="18.011278093181">
        <ele>82.2</ele>
        <time>2019-08-26T17:25:00Z</time>
      </trkpt>
      <trkpt lat="59.351958470766" lon="18.011247834522">
        <ele>82.2</ele>
        <time>2019-08-26T17:25:02Z</time>
      </trkpt>
      <trkpt lat="59.352262482279" lon="18.011366857502">
        <ele>82.6</ele>
        <time>2019-08-26T17:25:07Z</time>
      </trkpt>
      <trkpt lat="59.352434143591" lon="18.011541452479">
        <ele>82.2</ele>
        <time>2019-08-26T17:25:10Z</time>
      </trkpt>
      <trkpt lat="59.352873858065" lon="18.011447239923">
        <ele>82.2</ele>
        <time>2019-08-26T17:25:15Z</time>
      </trkpt>
      <trkpt lat="59.353107042523" lon="18.011517144969">
        <ele>83</ele>
        <time>2019-08-26T17:25:19Z</time>
      </trkpt>
      <trkpt lat="59.353180048872" lon="18.011494932934">
        <ele>83.4</ele>
        <time>2019-08-26T17:25:20Z</time>
      </trkpt>
      <trkpt lat="59.353240817647" lon="18.011447407561">
        <ele>83.8</ele>
        <time>2019-08-26T17:25:21Z</time>
      </trkpt>
      <trkpt lat="59.353402588317" lon="18.011095032485">
        <ele>84</ele>
        <time>2019-08-26T17:25:28Z</time>
      </trkpt>
      <trkpt lat="59.353655721697" lon="18.011559473564">
        <ele>82.4</ele>
        <time>2019-08-26T17:25:38Z</time>
      </trkpt>
      <trkpt lat="59.353685142166" lon="18.011822749043">
        <ele>82.2</ele>
        <time>2019-08-26T17:25:42Z</time>
      </trkpt>
      <trkpt lat="59.353625211581" lon="18.012005977377">
        <ele>81.4</ele>
        <time>2019-08-26T17:25:46Z</time>
      </trkpt>
      <trkpt lat="59.353647591254" lon="18.012177219594">
        <ele>81</ele>
        <time>2019-08-26T17:25:48Z</time>
      </trkpt>
      <trkpt lat="59.353683801062" lon="18.012383414334">
        <ele>80.2</ele>
        <time>2019-08-26T17:25:50Z</time>
      </trkpt>
      <trkpt lat="59.353728728046" lon="18.012462288013">
        <ele>79.8</ele>
        <time>2019-08-26T17:25:51Z</time>
      </trkpt>
      <trkpt lat="59.35381975548" lon="18.012646857451">
        <ele>79</ele>
        <time>2019-08-26T17:25:53Z</time>
      </trkpt>
      <trkpt lat="59.353982196702" lon="18.012706704217">
        <ele>78.2</ele>
        <time>2019-08-26T17:25:55Z</time>
      </trkpt>
      <trkpt lat="59.354063417313" lon="18.012696226842">
        <ele>78</ele>
        <time>2019-08-26T17:25:56Z</time>
      </trkpt>
      <trkpt lat="59.354234827168" lon="18.012699411964">
        <ele>77.2</ele>
        <time>2019-08-26T17:26:00Z</time>
      </trkpt>
      <trkpt lat="59.354282101084" lon="18.012901164297">
        <ele>76.8</ele>
        <time>2019-08-26T17:26:04Z</time>
      </trkpt>
      <trkpt lat="59.3545556863" lon="18.012906696351">
        <ele>75.6</ele>
        <time>2019-08-26T17:26:08Z</time>
      </trkpt>
      <trkpt lat="59.354644282983" lon="18.012860847358">
        <ele>75.2</ele>
        <time>2019-08-26T17:26:09Z</time>
      </trkpt>
      <trkpt lat="59.354828600964" lon="18.012738974532">
        <ele>74.6</ele>
        <time>2019-08-26T17:26:11Z</time>
      </trkpt>
      <trkpt lat="59.355114675211" lon="18.012552561076">
        <ele>73.8</ele>
        <time>2019-08-26T17:26:14Z</time>
      </trkpt>
      <trkpt lat="59.355284408686" lon="18.012474106492">
        <ele>73.8</ele>
        <time>2019-08-26T17:26:16Z</time>
      </trkpt>
      <trkpt lat="59.355395636499" lon="18.012260284223">
        <ele>73.4</ele>
        <time>2019-08-26T17:26:18Z</time>
      </trkpt>
      <trkpt lat="59.355498733869" lon="18.0118732919">
        <ele>72.2</ele>
        <time>2019-08-26T17:26:21Z</time>
      </trkpt>
      <trkpt lat="59.355534608401" lon="18.011771787091">
        <ele>71.8</ele>
        <time>2019-08-26T17:26:22Z</time>
      </trkpt>
      <trkpt lat="59.355639130694" lon="18.011558551555">
        <ele>71.2</ele>
        <time>2019-08-26T17:26:27Z</time>
      </trkpt>
      <trkpt lat="59.35565036244" lon="18.011557126632">
        <ele>71</ele>
        <time>2019-08-26T17:26:28Z</time>
      </trkpt>
      <trkpt lat="59.355388763341" lon="18.012522302417">
        <ele>70.2</ele>
        <time>2019-08-26T17:26:41Z</time>
      </trkpt>
      <trkpt lat="59.355361103071" lon="18.012699495783">
        <ele>70</ele>
        <time>2019-08-26T17:26:43Z</time>
      </trkpt>
      <trkpt lat="59.355054996083" lon="18.013534752118">
        <ele>70</ele>
        <time>2019-08-26T17:26:53Z</time>
      </trkpt>
      <trkpt lat="59.354960196794" lon="18.014101955291">
        <ele>69.8</ele>
        <time>2019-08-26T17:26:58Z</time>
      </trkpt>
      <trkpt lat="59.354650820865" lon="18.014961435317">
        <ele>71.2</ele>
        <time>2019-08-26T17:27:06Z</time>
      </trkpt>
      <trkpt lat="59.354593991583" lon="18.015287323589">
        <ele>70.6</ele>
        <time>2019-08-26T17:28:06Z</time>
      </trkpt>
      <trkpt lat="59.354618802007" lon="18.015333172582">
        <ele>70.4</ele>
        <time>2019-08-26T17:28:08Z</time>
      </trkpt>
      <trkpt lat="59.354659957136" lon="18.015401987981">
        <ele>70</ele>
        <time>2019-08-26T17:28:10Z</time>
      </trkpt>
      <trkpt lat="59.354803119988" lon="18.015593933491">
        <ele>70.2</ele>
        <time>2019-08-26T17:28:14Z</time>
      </trkpt>
      <trkpt lat="59.354951479618" lon="18.015800379688">
        <ele>70.4</ele>
        <time>2019-08-26T17:28:18Z</time>
      </trkpt>
      <trkpt lat="59.355092630814" lon="18.015851006364">
        <ele>70.6</ele>
        <time>2019-08-26T17:28:21Z</time>
      </trkpt>
      <trkpt lat="59.35518013785" lon="18.016054854172">
        <ele>71.4</ele>
        <time>2019-08-26T17:28:24Z</time>
      </trkpt>
      <trkpt lat="59.355198661849" lon="18.016125681227">
        <ele>71.8</ele>
        <time>2019-08-26T17:28:25Z</time>
      </trkpt>
      <trkpt lat="59.355233949648" lon="18.01632156623">
        <ele>72.6</ele>
        <time>2019-08-26T17:28:28Z</time>
      </trkpt>
      <trkpt lat="59.355263453936" lon="18.016364900653">
        <ele>72.6</ele>
        <time>2019-08-26T17:28:29Z</time>
      </trkpt>
      <trkpt lat="59.355368311505" lon="18.016421143202">
        <ele>72.8</ele>
        <time>2019-08-26T17:28:31Z</time>
      </trkpt>
      <trkpt lat="59.35578112008" lon="18.016530024083">
        <ele>73.2</ele>
        <time>2019-08-26T17:28:39Z</time>
      </trkpt>
      <trkpt lat="59.355918499421" lon="18.016589284116">
        <ele>73.4</ele>
        <time>2019-08-26T17:28:41Z</time>
      </trkpt>
      <trkpt lat="59.356172051896" lon="18.016676874971">
        <ele>73.6</ele>
        <time>2019-08-26T17:28:45Z</time>
      </trkpt>
      <trkpt lat="59.356736153766" lon="18.016825653696">
        <ele>74.2</ele>
        <time>2019-08-26T17:28:53Z</time>
      </trkpt>
      <trkpt lat="59.357285084397" lon="18.017030172056">
        <ele>73.2</ele>
        <time>2019-08-26T17:29:01Z</time>
      </trkpt>
      <trkpt lat="59.357823034739" lon="18.017193367649">
        <ele>74</ele>
        <time>2019-08-26T17:29:09Z</time>
      </trkpt>
      <trkpt lat="59.358384957315" lon="18.017329154429">
        <ele>74.4</ele>
        <time>2019-08-26T17:29:16Z</time>
      </trkpt>
      <trkpt lat="59.358560641939" lon="18.01736511278">
        <ele>74.8</ele>
        <time>2019-08-26T17:29:18Z</time>
      </trkpt>
      <trkpt lat="59.358630295528" lon="18.01737349468">
        <ele>75</ele>
        <time>2019-08-26T17:29:19Z</time>
      </trkpt>
      <trkpt lat="59.35876675286" lon="18.017400903493">
        <ele>75.8</ele>
        <time>2019-08-26T17:29:21Z</time>
      </trkpt>
      <trkpt lat="59.359354743145" lon="18.017519004464">
        <ele>76.4</ele>
        <time>2019-08-26T17:29:30Z</time>
      </trkpt>
      <trkpt lat="59.359683900358" lon="18.01751179603">
        <ele>77</ele>
        <time>2019-08-26T17:29:35Z</time>
      </trkpt>
      <trkpt lat="59.359997718694" lon="18.017481872647">
        <ele>78.2</ele>
        <time>2019-08-26T17:29:40Z</time>
      </trkpt>
      <trkpt lat="59.360406839233" lon="18.017437532396">
        <ele>78.4</ele>
        <time>2019-08-26T17:29:49Z</time>
      </trkpt>
      <trkpt lat="59.360588307368" lon="18.01737014192">
        <ele>79.4</ele>
        <time>2019-08-26T17:29:53Z</time>
      </trkpt>
      <trkpt lat="59.360835154323" lon="18.017362514391">
        <ele>80.6</ele>
        <time>2019-08-26T17:29:57Z</time>
      </trkpt>
      <trkpt lat="59.361050066239" lon="18.017334351207">
        <ele>81.6</ele>
        <time>2019-08-26T17:30:00Z</time>
      </trkpt>
      <trkpt lat="59.361243520491" lon="18.0173047631">
        <ele>82.8</ele>
        <time>2019-08-26T17:30:04Z</time>
      </trkpt>
      <trkpt lat="59.361389114094" lon="18.01728045559">
        <ele>84.2</ele>
        <time>2019-08-26T17:30:08Z</time>
      </trkpt>
      <trkpt lat="59.361497743518" lon="18.017194457296">
        <ele>85.4</ele>
        <time>2019-08-26T17:30:11Z</time>
      </trkpt>
      <trkpt lat="59.36164006818" lon="18.017095047962">
        <ele>86.6</ele>
        <time>2019-08-26T17:30:15Z</time>
      </trkpt>
      <trkpt lat="59.361777615159" lon="18.017022125432">
        <ele>87.6</ele>
        <time>2019-08-26T17:30:19Z</time>
      </trkpt>
      <trkpt lat="59.362078776826" lon="18.016855241803">
        <ele>88</ele>
        <time>2019-08-26T17:30:26Z</time>
      </trkpt>
      <trkpt lat="59.362344231599" lon="18.016525916952">
        <ele>86.8</ele>
        <time>2019-08-26T17:30:31Z</time>
      </trkpt>
      <trkpt lat="59.362399719777" lon="18.016484845642">
        <ele>86.4</ele>
        <time>2019-08-26T17:30:32Z</time>
      </trkpt>
      <trkpt lat="59.362458476896" lon="18.016453329698">
        <ele>86</ele>
        <time>2019-08-26T17:30:33Z</time>
      </trkpt>
      <trkpt lat="59.362676238658" lon="18.016296671987">
        <ele>85.8</ele>
        <time>2019-08-26T17:30:36Z</time>
      </trkpt>
      <trkpt lat="59.36304487462" lon="18.01613548805">
        <ele>85.2</ele>
        <time>2019-08-26T17:30:41Z</time>
      </trkpt>
      <trkpt lat="59.363217457941" lon="18.015988972438">
        <ele>84</ele>
        <time>2019-08-26T17:30:45Z</time>
      </trkpt>
      <trkpt lat="59.363268922807" lon="18.015958127046">
        <ele>84.2</ele>
        <time>2019-08-26T17:30:47Z</time>
      </trkpt>
      <trkpt lat="59.363327763745" lon="18.016110593807">
        <ele>84.4</ele>
        <time>2019-08-26T17:30:51Z</time>
      </trkpt>
      <trkpt lat="59.363446535268" lon="18.016212936806">
        <ele>84.4</ele>
        <time>2019-08-26T17:30:54Z</time>
      </trkpt>
      <trkpt lat="59.363536640693" lon="18.016290134105">
        <ele>84</ele>
        <time>2019-08-26T17:30:56Z</time>
      </trkpt>
      <trkpt lat="59.363596990373" lon="18.016530359359">
        <ele>82.6</ele>
        <time>2019-08-26T17:30:59Z</time>
      </trkpt>
      <trkpt lat="59.363635463294" lon="18.016654830574">
        <ele>81.6</ele>
        <time>2019-08-26T17:31:01Z</time>
      </trkpt>
      <trkpt lat="59.363784912571" lon="18.016811320647">
        <ele>81</ele>
        <time>2019-08-26T17:31:05Z</time>
      </trkpt>
      <trkpt lat="59.363927153414" lon="18.016710737847">
        <ele>81</ele>
        <time>2019-08-26T17:31:07Z</time>
      </trkpt>
      <trkpt lat="59.364017677934" lon="18.016622895535">
        <ele>80.8</ele>
        <time>2019-08-26T17:31:09Z</time>
      </trkpt>
      <trkpt lat="59.364044667652" lon="18.016534215033">
        <ele>80.6</ele>
        <time>2019-08-26T17:31:10Z</time>
      </trkpt>
      <trkpt lat="59.364141646235" lon="18.016076479474">
        <ele>79.6</ele>
        <time>2019-08-26T17:31:14Z</time>
      </trkpt>
      <trkpt lat="59.364259328111" lon="18.01556468066">
        <ele>78.8</ele>
        <time>2019-08-26T17:31:18Z</time>
      </trkpt>
      <trkpt lat="59.364267290916" lon="18.015263267536">
        <ele>78.4</ele>
        <time>2019-08-26T17:31:20Z</time>
      </trkpt>
      <trkpt lat="59.364264608708" lon="18.014876861946">
        <ele>77</ele>
        <time>2019-08-26T17:31:23Z</time>
      </trkpt>
      <trkpt lat="59.364283216526" lon="18.014807711271">
        <ele>76.6</ele>
        <time>2019-08-26T17:31:24Z</time>
      </trkpt>
      <trkpt lat="59.36436083292" lon="18.014753228921">
        <ele>76</ele>
        <time>2019-08-26T17:31:26Z</time>
      </trkpt>
      <trkpt lat="59.364449513422" lon="18.014785834512">
        <ele>75.6</ele>
        <time>2019-08-26T17:31:29Z</time>
      </trkpt>
      <trkpt lat="59.364538277743" lon="18.014855739558">
        <ele>75.2</ele>
        <time>2019-08-26T17:31:31Z</time>
      </trkpt>
      <trkpt lat="59.364594436473" lon="18.014878789783">
        <ele>75</ele>
        <time>2019-08-26T17:31:32Z</time>
      </trkpt>
      <trkpt lat="59.364718069498" lon="18.014940145291">
        <ele>74.6</ele>
        <time>2019-08-26T17:31:34Z</time>
      </trkpt>
      <trkpt lat="59.364893837941" lon="18.015085906532">
        <ele>74.4</ele>
        <time>2019-08-26T17:31:37Z</time>
      </trkpt>
      <trkpt lat="59.365117383214" lon="18.014988425035">
        <ele>75</ele>
        <time>2019-08-26T17:31:41Z</time>
      </trkpt>
      <trkpt lat="59.365279070065" lon="18.014678965287">
        <ele>75.4</ele>
        <time>2019-08-26T17:31:46Z</time>
      </trkpt>
      <trkpt lat="59.365633875892" lon="18.014262720133">
        <ele>73.6</ele>
        <time>2019-08-26T17:31:52Z</time>
      </trkpt>
      <trkpt lat="59.366116505694" lon="18.013587977183">
        <ele>73.6</ele>
        <time>2019-08-26T17:32:00Z</time>
      </trkpt>
      <trkpt lat="59.36658287461" lon="18.012957490665">
        <ele>74.4</ele>
        <time>2019-08-26T17:32:08Z</time>
      </trkpt>
      <trkpt lat="59.366637524598" lon="18.012861182634">
        <ele>74.6</ele>
        <time>2019-08-26T17:32:09Z</time>
      </trkpt>
      <trkpt lat="59.367088470818" lon="18.012166574581">
        <ele>73.6</ele>
        <time>2019-08-26T17:32:17Z</time>
      </trkpt>
      <trkpt lat="59.36723414824" lon="18.012048976524">
        <ele>73.4</ele>
        <time>2019-08-26T17:32:19Z</time>
      </trkpt>
      <trkpt lat="59.367442186998" lon="18.011777486783">
        <ele>72.6</ele>
        <time>2019-08-26T17:32:22Z</time>
      </trkpt>
      <trkpt lat="59.36762893573" lon="18.011511612915">
        <ele>71.2</ele>
        <time>2019-08-26T17:32:25Z</time>
      </trkpt>
      <trkpt lat="59.367824820733" lon="18.011227466505">
        <ele>70</ele>
        <time>2019-08-26T17:32:29Z</time>
      </trkpt>
      <trkpt lat="59.367902604765" lon="18.011158986382">
        <ele>68.4</ele>
        <time>2019-08-26T17:32:31Z</time>
      </trkpt>
      <trkpt lat="59.367965469015" lon="18.011142893134">
        <ele>67.2</ele>
        <time>2019-08-26T17:32:33Z</time>
      </trkpt>
      <trkpt lat="59.367991201448" lon="18.0111775942">
        <ele>67</ele>
        <time>2019-08-26T17:32:34Z</time>
      </trkpt>
      <trkpt lat="59.368133190834" lon="18.011135265605">
        <ele>67</ele>
        <time>2019-08-26T17:32:37Z</time>
      </trkpt>
      <trkpt lat="59.368215333454" lon="18.010943571552">
        <ele>68.8</ele>
        <time>2019-08-26T17:32:40Z</time>
      </trkpt>
      <trkpt lat="59.368274090573" lon="18.010567894794">
        <ele>70</ele>
        <time>2019-08-26T17:32:43Z</time>
      </trkpt>
      <trkpt lat="59.368325639258" lon="18.010312665939">
        <ele>70.6</ele>
        <time>2019-08-26T17:32:45Z</time>
      </trkpt>
      <trkpt lat="59.368441560935" lon="18.010047462623">
        <ele>70.6</ele>
        <time>2019-08-26T17:32:48Z</time>
      </trkpt>
      <trkpt lat="59.36849059505" lon="18.009813104699">
        <ele>69.8</ele>
        <time>2019-08-26T17:32:50Z</time>
      </trkpt>
      <trkpt lat="59.368608360745" lon="18.009469195342">
        <ele>69</ele>
        <time>2019-08-26T17:32:53Z</time>
      </trkpt>
      <trkpt lat="59.368662340181" lon="18.009372719673">
        <ele>69</ele>
        <time>2019-08-26T17:32:54Z</time>
      </trkpt>
      <trkpt lat="59.368976996707" lon="18.008949349904">
        <ele>68.4</ele>
        <time>2019-08-26T17:32:59Z</time>
      </trkpt>
      <trkpt lat="59.369117812627" lon="18.008840636661">
        <ele>68</ele>
        <time>2019-08-26T17:33:01Z</time>
      </trkpt>
      <trkpt lat="59.369661965575" lon="18.008597729199">
        <ele>67.2</ele>
        <time>2019-08-26T17:33:08Z</time>
      </trkpt>
      <trkpt lat="59.369748215326" lon="18.008571493852">
        <ele>67</ele>
        <time>2019-08-26T17:33:09Z</time>
      </trkpt>
      <trkpt lat="59.370329500091" lon="18.008358258316">
        <ele>66.4</ele>
        <time>2019-08-26T17:33:16Z</time>
      </trkpt>
      <trkpt lat="59.370569725345" lon="18.0082104016">
        <ele>65.8</ele>
        <time>2019-08-26T17:33:19Z</time>
      </trkpt>
      <trkpt lat="59.370737614802" lon="18.008125409134">
        <ele>64.4</ele>
        <time>2019-08-26T17:33:21Z</time>
      </trkpt>
      <trkpt lat="59.371360222334" lon="18.008025748343">
        <ele>65</ele>
        <time>2019-08-26T17:33:28Z</time>
      </trkpt>
      <trkpt lat="59.371451836501" lon="18.007989454716">
        <ele>65.4</ele>
        <time>2019-08-26T17:33:29Z</time>
      </trkpt>
      <trkpt lat="59.37202188952" lon="18.007707152324">
        <ele>66</ele>
        <time>2019-08-26T17:33:36Z</time>
      </trkpt>
      <trkpt lat="59.372175781204" lon="18.007648479024">
        <ele>66</ele>
        <time>2019-08-26T17:33:38Z</time>
      </trkpt>
      <trkpt lat="59.372336546046" lon="18.007617298356">
        <ele>65.4</ele>
        <time>2019-08-26T17:33:40Z</time>
      </trkpt>
      <trkpt lat="59.372493874309" lon="18.007504058887">
        <ele>64.8</ele>
        <time>2019-08-26T17:33:42Z</time>
      </trkpt>
      <trkpt lat="59.372645419061" lon="18.007316304327">
        <ele>64.4</ele>
        <time>2019-08-26T17:33:44Z</time>
      </trkpt>
      <trkpt lat="59.37321044294" lon="18.006816156354">
        <ele>64.2</ele>
        <time>2019-08-26T17:33:51Z</time>
      </trkpt>
      <trkpt lat="59.373432228014" lon="18.006546510631">
        <ele>63</ele>
        <time>2019-08-26T17:33:54Z</time>
      </trkpt>
      <trkpt lat="59.373871104298" lon="18.006149376209">
        <ele>64.4</ele>
        <time>2019-08-26T17:34:00Z</time>
      </trkpt>
      <trkpt lat="59.37438223256" lon="18.005769173225">
        <ele>64.4</ele>
        <time>2019-08-26T17:34:07Z</time>
      </trkpt>
      <trkpt lat="59.374661517468" lon="18.005550070359">
        <ele>65.6</ele>
        <time>2019-08-26T17:34:11Z</time>
      </trkpt>
      <trkpt lat="59.374863102163" lon="18.005383270549">
        <ele>67</ele>
        <time>2019-08-26T17:34:14Z</time>
      </trkpt>
      <trkpt lat="59.375355454969" lon="18.004990327077">
        <ele>65.8</ele>
        <time>2019-08-26T17:34:22Z</time>
      </trkpt>
      <trkpt lat="59.375873791665" lon="18.004643400236">
        <ele>66.8</ele>
        <time>2019-08-26T17:34:31Z</time>
      </trkpt>
      <trkpt lat="59.375931040042" lon="18.004608531532">
        <ele>67</ele>
        <time>2019-08-26T17:34:32Z</time>
      </trkpt>
      <trkpt lat="59.375990048618" lon="18.004577267045">
        <ele>67.2</ele>
        <time>2019-08-26T17:34:33Z</time>
      </trkpt>
      <trkpt lat="59.376328425921" lon="18.004401414783">
        <ele>68</ele>
        <time>2019-08-26T17:34:39Z</time>
      </trkpt>
      <trkpt lat="59.376712819855" lon="18.004203769581">
        <ele>69</ele>
        <time>2019-08-26T17:34:46Z</time>
      </trkpt>
      <trkpt lat="59.376765039092" lon="18.00418625141">
        <ele>69.2</ele>
        <time>2019-08-26T17:34:47Z</time>
      </trkpt>
      <trkpt lat="59.376813067379" lon="18.004156663303">
        <ele>69.6</ele>
        <time>2019-08-26T17:34:48Z</time>
      </trkpt>
      <trkpt lat="59.377037869937" lon="18.003880647336">
        <ele>70.4</ele>
        <time>2019-08-26T17:34:53Z</time>
      </trkpt>
      <trkpt lat="59.377132082493" lon="18.003768078419">
        <ele>71.8</ele>
        <time>2019-08-26T17:34:55Z</time>
      </trkpt>
      <trkpt lat="59.377277089363" lon="18.003588873397">
        <ele>73</ele>
        <time>2019-08-26T17:34:58Z</time>
      </trkpt>
      <trkpt lat="59.377372391566" lon="18.003491224262">
        <ele>72.8</ele>
        <time>2019-08-26T17:35:00Z</time>
      </trkpt>
      <trkpt lat="59.377728706135" lon="18.003406064158">
        <ele>72.6</ele>
        <time>2019-08-26T17:35:07Z</time>
      </trkpt>
      <trkpt lat="59.377825684718" lon="18.003332638714">
        <ele>73</ele>
        <time>2019-08-26T17:35:09Z</time>
      </trkpt>
      <trkpt lat="59.377906905329" lon="18.003185284912">
        <ele>74.4</ele>
        <time>2019-08-26T17:35:11Z</time>
      </trkpt>
      <trkpt lat="59.37794873101" lon="18.003117810617">
        <ele>74.8</ele>
        <time>2019-08-26T17:35:12Z</time>
      </trkpt>
      <trkpt lat="59.378386182371" lon="18.002766944283">
        <ele>75.6</ele>
        <time>2019-08-26T17:35:21Z</time>
      </trkpt>
      <trkpt lat="59.378911224587" lon="18.002347514007">
        <ele>75.6</ele>
        <time>2019-08-26T17:35:30Z</time>
      </trkpt>
      <trkpt lat="59.37932503899" lon="18.002063786692">
        <ele>74.6</ele>
        <time>2019-08-26T17:35:36Z</time>
      </trkpt>
      <trkpt lat="59.37985058412" lon="18.001635303964">
        <ele>74</ele>
        <time>2019-08-26T17:35:44Z</time>
      </trkpt>
      <trkpt lat="59.379981677036" lon="18.001548970394">
        <ele>73.2</ele>
        <time>2019-08-26T17:35:46Z</time>
      </trkpt>
      <trkpt lat="59.380120313662" lon="18.001489291266">
        <ele>72.8</ele>
        <time>2019-08-26T17:35:48Z</time>
      </trkpt>
      <trkpt lat="59.380263895609" lon="18.001454254924">
        <ele>72.2</ele>
        <time>2019-08-26T17:35:50Z</time>
      </trkpt>
      <trkpt lat="59.38033673432" lon="18.001456350399">
        <ele>71.8</ele>
        <time>2019-08-26T17:35:51Z</time>
      </trkpt>
      <trkpt lat="59.380565979285" lon="18.001510329835">
        <ele>70.6</ele>
        <time>2019-08-26T17:35:54Z</time>
      </trkpt>
      <trkpt lat="59.380636973978" lon="18.001543605978">
        <ele>70.4</ele>
        <time>2019-08-26T17:35:55Z</time>
      </trkpt>
      <trkpt lat="59.381030420364" lon="18.001672184324">
        <ele>69.8</ele>
        <time>2019-08-26T17:36:00Z</time>
      </trkpt>
      <trkpt lat="59.381095883003" lon="18.001655420524">
        <ele>69.4</ele>
        <time>2019-08-26T17:36:01Z</time>
      </trkpt>
      <trkpt lat="59.381233429982" lon="18.001635974516">
        <ele>68.8</ele>
        <time>2019-08-26T17:36:03Z</time>
      </trkpt>
      <trkpt lat="59.381302832114" lon="18.001607559875">
        <ele>68.4</ele>
        <time>2019-08-26T17:36:04Z</time>
      </trkpt>
      <trkpt lat="59.381500896411" lon="18.001411171958">
        <ele>67.6</ele>
        <time>2019-08-26T17:36:07Z</time>
      </trkpt>
      <trkpt lat="59.38169208755" lon="18.00117463474">
        <ele>67.4</ele>
        <time>2019-08-26T17:36:10Z</time>
      </trkpt>
      <trkpt lat="59.381755370895" lon="18.00108243384">
        <ele>67.4</ele>
        <time>2019-08-26T17:36:11Z</time>
      </trkpt>
      <trkpt lat="59.382240515267" lon="18.000342479708">
        <ele>68</ele>
        <time>2019-08-26T17:36:19Z</time>
      </trkpt>
      <trkpt lat="59.382699089016" lon="17.999736468338">
        <ele>68</ele>
        <time>2019-08-26T17:36:27Z</time>
      </trkpt>
      <trkpt lat="59.382796570513" lon="17.999548294683">
        <ele>67.6</ele>
        <time>2019-08-26T17:36:29Z</time>
      </trkpt>
      <trkpt lat="59.382963789418" lon="17.998970781773">
        <ele>68</ele>
        <time>2019-08-26T17:36:34Z</time>
      </trkpt>
      <trkpt lat="59.383075603964" lon="17.998799371918">
        <ele>68.4</ele>
        <time>2019-08-26T17:36:36Z</time>
      </trkpt>
      <trkpt lat="59.383138971128" lon="17.998747404138">
        <ele>68.6</ele>
        <time>2019-08-26T17:36:37Z</time>
      </trkpt>
      <trkpt lat="59.383635095789" lon="17.998149020297">
        <ele>68.8</ele>
        <time>2019-08-26T17:36:45Z</time>
      </trkpt>
      <trkpt lat="59.383699887876" lon="17.99809009554">
        <ele>68.8</ele>
        <time>2019-08-26T17:36:46Z</time>
      </trkpt>
      <trkpt lat="59.383837267217" lon="17.998021112503">
        <ele>69</ele>
        <time>2019-08-26T17:36:48Z</time>
      </trkpt>
      <trkpt lat="59.38417061538" lon="17.997974090044">
        <ele>69.6</ele>
        <time>2019-08-26T17:36:53Z</time>
      </trkpt>
      <trkpt lat="59.38476573028" lon="17.997948692887">
        <ele>70.2</ele>
        <time>2019-08-26T17:37:02Z</time>
      </trkpt>
      <trkpt lat="59.385320695879" lon="17.99791910478">
        <ele>70.6</ele>
        <time>2019-08-26T17:37:11Z</time>
      </trkpt>
      <trkpt lat="59.385563100427" lon="17.997915919658">
        <ele>71.6</ele>
        <time>2019-08-26T17:37:15Z</time>
      </trkpt>
      <trkpt lat="59.386061488201" lon="17.99787048976">
        <ele>72.8</ele>
        <time>2019-08-26T17:37:23Z</time>
      </trkpt>
      <trkpt lat="59.386362649868" lon="17.997842158938">
        <ele>73.8</ele>
        <time>2019-08-26T17:37:28Z</time>
      </trkpt>
      <trkpt lat="59.386470441102" lon="17.997836710703">
        <ele>74.4</ele>
        <time>2019-08-26T17:37:30Z</time>
      </trkpt>
      <trkpt lat="59.386639168749" lon="17.997809218071">
        <ele>75</ele>
        <time>2019-08-26T17:37:33Z</time>
      </trkpt>
      <trkpt lat="59.386904120608" lon="17.997790274977">
        <ele>76.2</ele>
        <time>2019-08-26T17:37:38Z</time>
      </trkpt>
      <trkpt lat="59.387188686113" lon="17.997786838398">
        <ele>77.2</ele>
        <time>2019-08-26T17:37:44Z</time>
      </trkpt>
      <trkpt lat="59.387269571448" lon="17.99781433103">
        <ele>77.8</ele>
        <time>2019-08-26T17:37:46Z</time>
      </trkpt>
      <trkpt lat="59.387334698811" lon="17.997893791442">
        <ele>78.2</ele>
        <time>2019-08-26T17:37:48Z</time>
      </trkpt>
      <trkpt lat="59.387353306629" lon="17.997955817502">
        <ele>78.6</ele>
        <time>2019-08-26T17:37:49Z</time>
      </trkpt>
      <trkpt lat="59.387421200019" lon="17.998233174573">
        <ele>78.4</ele>
        <time>2019-08-26T17:37:53Z</time>
      </trkpt>
      <trkpt lat="59.38744710009" lon="17.998421012952">
        <ele>78.2</ele>
        <time>2019-08-26T17:37:55Z</time>
      </trkpt>
      <trkpt lat="59.387467635745" lon="17.998617149412">
        <ele>78</ele>
        <time>2019-08-26T17:37:57Z</time>
      </trkpt>
      <trkpt lat="59.387514406747" lon="17.998832564242">
        <ele>77.8</ele>
        <time>2019-08-26T17:37:59Z</time>
      </trkpt>
      <trkpt lat="59.387571906581" lon="17.99900958997">
        <ele>77.6</ele>
        <time>2019-08-26T17:38:01Z</time>
      </trkpt>
      <trkpt lat="59.387697383624" lon="17.999144622379">
        <ele>77.2</ele>
        <time>2019-08-26T17:38:03Z</time>
      </trkpt>
      <trkpt lat="59.387817999165" lon="17.999151327899">
        <ele>77.4</ele>
        <time>2019-08-26T17:38:05Z</time>
      </trkpt>
      <trkpt lat="59.388025786466" lon="17.998966255547">
        <ele>78.4</ele>
        <time>2019-08-26T17:38:10Z</time>
      </trkpt>
      <trkpt lat="59.388087728707" lon="17.9989064926">
        <ele>78.6</ele>
        <time>2019-08-26T17:38:11Z</time>
      </trkpt>
      <trkpt lat="59.388284787176" lon="17.99866006474">
        <ele>79.6</ele>
        <time>2019-08-26T17:38:15Z</time>
      </trkpt>
      <trkpt lat="59.388505650241" lon="17.998359489806">
        <ele>79.6</ele>
        <time>2019-08-26T17:38:19Z</time>
      </trkpt>
      <trkpt lat="59.388716287388" lon="17.998101075829">
        <ele>78.2</ele>
        <time>2019-08-26T17:38:22Z</time>
      </trkpt>
      <trkpt lat="59.38887789042" lon="17.997883733162">
        <ele>77</ele>
        <time>2019-08-26T17:38:24Z</time>
      </trkpt>
      <trkpt lat="59.389126413755" lon="17.997515516295">
        <ele>75.4</ele>
        <time>2019-08-26T17:38:27Z</time>
      </trkpt>
      <trkpt lat="59.389296733963" lon="17.997255174481">
        <ele>73.6</ele>
        <time>2019-08-26T17:38:29Z</time>
      </trkpt>
      <trkpt lat="59.389459510461" lon="17.997018972539">
        <ele>72.6</ele>
        <time>2019-08-26T17:38:31Z</time>
      </trkpt>
      <trkpt lat="59.389742567224" lon="17.996642038496">
        <ele>71</ele>
        <time>2019-08-26T17:38:34Z</time>
      </trkpt>
      <trkpt lat="59.389935853838" lon="17.996347917625">
        <ele>69.2</ele>
        <time>2019-08-26T17:38:36Z</time>
      </trkpt>
      <trkpt lat="59.390082117993" lon="17.995983891708">
        <ele>67.4</ele>
        <time>2019-08-26T17:38:38Z</time>
      </trkpt>
      <trkpt lat="59.390198458765" lon="17.995622212723">
        <ele>66.2</ele>
        <time>2019-08-26T17:38:40Z</time>
      </trkpt>
      <trkpt lat="59.39052661015" lon="17.994675812394">
        <ele>67</ele>
        <time>2019-08-26T17:38:46Z</time>
      </trkpt>
      <trkpt lat="59.390833220052" lon="17.993744164209">
        <ele>67</ele>
        <time>2019-08-26T17:38:52Z</time>
      </trkpt>
      <trkpt lat="59.391079899369" lon="17.992971939762">
        <ele>67.2</ele>
        <time>2019-08-26T17:38:57Z</time>
      </trkpt>
      <trkpt lat="59.391307384135" lon="17.992291413301">
        <ele>68.2</ele>
        <time>2019-08-26T17:39:02Z</time>
      </trkpt>
      <trkpt lat="59.391385251986" lon="17.992040123939">
        <ele>69.2</ele>
        <time>2019-08-26T17:39:04Z</time>
      </trkpt>
      <trkpt lat="59.391497820903" lon="17.991712056373">
        <ele>70.6</ele>
        <time>2019-08-26T17:39:07Z</time>
      </trkpt>
      <trkpt lat="59.39179395343" lon="17.990784515319">
        <ele>71.6</ele>
        <time>2019-08-26T17:39:16Z</time>
      </trkpt>
      <trkpt lat="59.392062090411" lon="17.98981464567">
        <ele>72.6</ele>
        <time>2019-08-26T17:39:25Z</time>
      </trkpt>
      <trkpt lat="59.392084470084" lon="17.98970735735">
        <ele>72.8</ele>
        <time>2019-08-26T17:39:26Z</time>
      </trkpt>
      <trkpt lat="59.392178347364" lon="17.989254231836">
        <ele>73.8</ele>
        <time>2019-08-26T17:39:30Z</time>
      </trkpt>
      <trkpt lat="59.392320839664" lon="17.988713180191">
        <ele>75</ele>
        <time>2019-08-26T17:39:35Z</time>
      </trkpt>
      <trkpt lat="59.392468528742" lon="17.988374970526">
        <ele>75.6</ele>
        <time>2019-08-26T17:39:39Z</time>
      </trkpt>
      <trkpt lat="59.392600543667" lon="17.988129632313">
        <ele>76</ele>
        <time>2019-08-26T17:39:42Z</time>
      </trkpt>
      <trkpt lat="59.392714956602" lon="17.987973896611">
        <ele>76</ele>
        <time>2019-08-26T17:39:44Z</time>
      </trkpt>
      <trkpt lat="59.392899945135" lon="17.987734006633">
        <ele>76.2</ele>
        <time>2019-08-26T17:39:47Z</time>
      </trkpt>
      <trkpt lat="59.393438230753" lon="17.987337123668">
        <ele>76.4</ele>
        <time>2019-08-26T17:39:55Z</time>
      </trkpt>
      <trkpt lat="59.393680383844" lon="17.987190524237">
        <ele>77.2</ele>
        <time>2019-08-26T17:39:59Z</time>
      </trkpt>
      <trkpt lat="59.394129653684" lon="17.986793976548">
        <ele>77.4</ele>
        <time>2019-08-26T17:40:06Z</time>
      </trkpt>
      <trkpt lat="59.394446238047" lon="17.986713091213">
        <ele>78.4</ele>
        <time>2019-08-26T17:40:11Z</time>
      </trkpt>
      <trkpt lat="59.394981841457" lon="17.986388795502">
        <ele>79</ele>
        <time>2019-08-26T17:40:19Z</time>
      </trkpt>
      <trkpt lat="59.395369252875" lon="17.986125603842">
        <ele>79.4</ele>
        <time>2019-08-26T17:40:25Z</time>
      </trkpt>
      <trkpt lat="59.395812739204" lon="17.98582989041">
        <ele>80.4</ele>
        <time>2019-08-26T17:40:32Z</time>
      </trkpt>
      <trkpt lat="59.3963143121" lon="17.985359833458">
        <ele>80.4</ele>
        <time>2019-08-26T17:40:40Z</time>
      </trkpt>
      <trkpt lat="59.396846898026" lon="17.98481065137">
        <ele>80.8</ele>
        <time>2019-08-26T17:40:49Z</time>
      </trkpt>
      <trkpt lat="59.397374957726" lon="17.98426666606">
        <ele>80.6</ele>
        <time>2019-08-26T17:40:58Z</time>
      </trkpt>
      <trkpt lat="59.397883487599" lon="17.9837771631">
        <ele>80.8</ele>
        <time>2019-08-26T17:41:06Z</time>
      </trkpt>
      <trkpt lat="59.398090352891" lon="17.983487903731">
        <ele>81.8</ele>
        <time>2019-08-26T17:41:10Z</time>
      </trkpt>
      <trkpt lat="59.398549932468" lon="17.982938637824">
        <ele>82.8</ele>
        <time>2019-08-26T17:41:18Z</time>
      </trkpt>
      <trkpt lat="59.399002052154" lon="17.982331704445">
        <ele>83.8</ele>
        <time>2019-08-26T17:41:26Z</time>
      </trkpt>
      <trkpt lat="59.399063994395" lon="17.982243107762">
        <ele>83.8</ele>
        <time>2019-08-26T17:41:27Z</time>
      </trkpt>
      <trkpt lat="59.399469845993" lon="17.981392344912">
        <ele>84.2</ele>
        <time>2019-08-26T17:41:35Z</time>
      </trkpt>
      <trkpt lat="59.3997676549" lon="17.980702933637">
        <ele>84.8</ele>
        <time>2019-08-26T17:41:42Z</time>
      </trkpt>
      <trkpt lat="59.400135033577" lon="17.979932050294">
        <ele>86</ele>
        <time>2019-08-26T17:41:50Z</time>
      </trkpt>
      <trkpt lat="59.400514649828" lon="17.979088663516">
        <ele>86.8</ele>
        <time>2019-08-26T17:41:58Z</time>
      </trkpt>
      <trkpt lat="59.400654711377" lon="17.978764954538">
        <ele>87.2</ele>
        <time>2019-08-26T17:42:01Z</time>
      </trkpt>
      <trkpt lat="59.40107271673" lon="17.977918969371">
        <ele>87.8</ele>
        <time>2019-08-26T17:42:09Z</time>
      </trkpt>
      <trkpt lat="59.401700018126" lon="17.976521874279">
        <ele>87.6</ele>
        <time>2019-08-26T17:42:22Z</time>
      </trkpt>
      <trkpt lat="59.401997659395" lon="17.975901697498">
        <ele>88.2</ele>
        <time>2019-08-26T17:42:28Z</time>
      </trkpt>
      <trkpt lat="59.402388926487" lon="17.97510692574">
        <ele>89</ele>
        <time>2019-08-26T17:42:36Z</time>
      </trkpt>
      <trkpt lat="59.402435697489" lon="17.975003660732">
        <ele>89.4</ele>
        <time>2019-08-26T17:42:37Z</time>
      </trkpt>
      <trkpt lat="59.402831155531" lon="17.974159268126">
        <ele>90</ele>
        <time>2019-08-26T17:42:46Z</time>
      </trkpt>
      <trkpt lat="59.402918662567" lon="17.974018033111">
        <ele>89.8</ele>
        <time>2019-08-26T17:42:48Z</time>
      </trkpt>
      <trkpt lat="59.403041457402" lon="17.973999173836">
        <ele>89.4</ele>
        <time>2019-08-26T17:42:50Z</time>
      </trkpt>
      <trkpt lat="59.403164168418" lon="17.97407427566">
        <ele>89</ele>
        <time>2019-08-26T17:42:52Z</time>
      </trkpt>
      <trkpt lat="59.403349408408" lon="17.974259012736">
        <ele>88.6</ele>
        <time>2019-08-26T17:42:55Z</time>
      </trkpt>
      <trkpt lat="59.403880485592" lon="17.974587164121">
        <ele>89.6</ele>
        <time>2019-08-26T17:43:03Z</time>
      </trkpt>
      <trkpt lat="59.404406114541" lon="17.97497952086">
        <ele>88</ele>
        <time>2019-08-26T17:43:10Z</time>
      </trkpt>
      <trkpt lat="59.404476354863" lon="17.975071554122">
        <ele>87.4</ele>
        <time>2019-08-26T17:43:11Z</time>
      </trkpt>
      <trkpt lat="59.404538129466" lon="17.975174316216">
        <ele>87</ele>
        <time>2019-08-26T17:43:12Z</time>
      </trkpt>
      <trkpt lat="59.404642065026" lon="17.975406746303">
        <ele>86.6</ele>
        <time>2019-08-26T17:43:14Z</time>
      </trkpt>
      <trkpt lat="59.404878518425" lon="17.976000017185">
        <ele>88.2</ele>
        <time>2019-08-26T17:43:19Z</time>
      </trkpt>
      <trkpt lat="59.405053364859" lon="17.976436630356">
        <ele>88</ele>
        <time>2019-08-26T17:43:23Z</time>
      </trkpt>
      <trkpt lat="59.405157048962" lon="17.976594880628">
        <ele>88</ele>
        <time>2019-08-26T17:43:25Z</time>
      </trkpt>
      <trkpt lat="59.405385623375" lon="17.976762099533">
        <ele>88.2</ele>
        <time>2019-08-26T17:43:29Z</time>
      </trkpt>
      <trkpt lat="59.405542951638" lon="17.976955553785">
        <ele>88.6</ele>
        <time>2019-08-26T17:43:32Z</time>
      </trkpt>
      <trkpt lat="59.405663567179" lon="17.976978184915">
        <ele>89</ele>
        <time>2019-08-26T17:43:34Z</time>
      </trkpt>
      <trkpt lat="59.405796336475" lon="17.976871734785">
        <ele>89.2</ele>
        <time>2019-08-26T17:43:36Z</time>
      </trkpt>
      <trkpt lat="59.4059115876" lon="17.976683644949">
        <ele>89.8</ele>
        <time>2019-08-26T17:43:38Z</time>
      </trkpt>
      <trkpt lat="59.406292209679" lon="17.975931453243">
        <ele>90.2</ele>
        <time>2019-08-26T17:43:46Z</time>
      </trkpt>
      <trkpt lat="59.40633822631" lon="17.97586129674">
        <ele>90.6</ele>
        <time>2019-08-26T17:43:47Z</time>
      </trkpt>
      <trkpt lat="59.406548863457" lon="17.975613611595">
        <ele>91.8</ele>
        <time>2019-08-26T17:43:52Z</time>
      </trkpt>
      <trkpt lat="59.406734019628" lon="17.975347737727">
        <ele>92.8</ele>
        <time>2019-08-26T17:43:56Z</time>
      </trkpt>
      <trkpt lat="59.406834853885" lon="17.975307923702">
        <ele>93.6</ele>
        <time>2019-08-26T17:43:58Z</time>
      </trkpt>
      <trkpt lat="59.406884223276" lon="17.975298284517">
        <ele>94</ele>
        <time>2019-08-26T17:43:59Z</time>
      </trkpt>
      <trkpt lat="59.406999809677" lon="17.975285292572">
        <ele>94.6</ele>
        <time>2019-08-26T17:44:01Z</time>
      </trkpt>
      <trkpt lat="59.407114725526" lon="17.975236090819">
        <ele>95.2</ele>
        <time>2019-08-26T17:44:03Z</time>
      </trkpt>
      <trkpt lat="59.407520158029" lon="17.975023022921">
        <ele>95.6</ele>
        <time>2019-08-26T17:44:10Z</time>
      </trkpt>
      <trkpt lat="59.407950987689" lon="17.974725130195">
        <ele>96.2</ele>
        <time>2019-08-26T17:44:17Z</time>
      </trkpt>
      <trkpt lat="59.408436802613" lon="17.974086094139">
        <ele>97.4</ele>
        <time>2019-08-26T17:44:26Z</time>
      </trkpt>
      <trkpt lat="59.408570661556" lon="17.974084585397">
        <ele>97.2</ele>
        <time>2019-08-26T17:44:45Z</time>
      </trkpt>
      <trkpt lat="59.408584240234" lon="17.974184413826">
        <ele>97.4</ele>
        <time>2019-08-26T17:44:47Z</time>
      </trkpt>
      <trkpt lat="59.4086357051" lon="17.974253229225">
        <ele>97.2</ele>
        <time>2019-08-26T17:44:49Z</time>
      </trkpt>
      <trkpt lat="59.408725726706" lon="17.974335623302">
        <ele>97.2</ele>
        <time>2019-08-26T17:44:51Z</time>
      </trkpt>
      <trkpt lat="59.408915995836" lon="17.974671402216">
        <ele>98</ele>
        <time>2019-08-26T17:44:55Z</time>
      </trkpt>
      <trkpt lat="59.409023451794" lon="17.974756478501">
        <ele>97.8</ele>
        <time>2019-08-26T17:44:57Z</time>
      </trkpt>
      <trkpt lat="59.409136272168" lon="17.974637874616">
        <ele>96.8</ele>
        <time>2019-08-26T17:44:59Z</time>
      </trkpt>
      <trkpt lat="59.409238615167" lon="17.974463698734">
        <ele>96.2</ele>
        <time>2019-08-26T17:45:01Z</time>
      </trkpt>
      <trkpt lat="59.409697188916" lon="17.973792727639">
        <ele>96.2</ele>
        <time>2019-08-26T17:45:09Z</time>
      </trkpt>
      <trkpt lat="59.409997260936" lon="17.973643278362">
        <ele>95</ele>
        <time>2019-08-26T17:45:13Z</time>
      </trkpt>
      <trkpt lat="59.410539821323" lon="17.973488548488">
        <ele>94</ele>
        <time>2019-08-26T17:45:20Z</time>
      </trkpt>
      <trkpt lat="59.410849783985" lon="17.973407998429">
        <ele>92.8</ele>
        <time>2019-08-26T17:45:24Z</time>
      </trkpt>
      <trkpt lat="59.411161842122" lon="17.973412273198">
        <ele>91.8</ele>
        <time>2019-08-26T17:45:28Z</time>
      </trkpt>
      <trkpt lat="59.41163139616" lon="17.973359970142">
        <ele>90.6</ele>
        <time>2019-08-26T17:45:33Z</time>
      </trkpt>
      <trkpt lat="59.412244699783" lon="17.973240779524">
        <ele>89.6</ele>
        <time>2019-08-26T17:45:40Z</time>
      </trkpt>
      <trkpt lat="59.412332709733" lon="17.973232649081">
        <ele>89.6</ele>
        <time>2019-08-26T17:45:41Z</time>
      </trkpt>
      <trkpt lat="59.412890608997" lon="17.973139107077">
        <ele>90</ele>
        <time>2019-08-26T17:45:48Z</time>
      </trkpt>
      <trkpt lat="59.413045590328" lon="17.973109938065">
        <ele>90.6</ele>
        <time>2019-08-26T17:45:50Z</time>
      </trkpt>
      <trkpt lat="59.413493686702" lon="17.973026957255">
        <ele>91.6</ele>
        <time>2019-08-26T17:45:56Z</time>
      </trkpt>
      <trkpt lat="59.413919403403" lon="17.972964931195">
        <ele>92.8</ele>
        <time>2019-08-26T17:46:02Z</time>
      </trkpt>
      <trkpt lat="59.414485014015" lon="17.972885051688">
        <ele>93.2</ele>
        <time>2019-08-26T17:46:10Z</time>
      </trkpt>
      <trkpt lat="59.415055653767" lon="17.972855882676">
        <ele>92.6</ele>
        <time>2019-08-26T17:46:17Z</time>
      </trkpt>
      <trkpt lat="59.415602824199" lon="17.972788240743">
        <ele>93.2</ele>
        <time>2019-08-26T17:46:24Z</time>
      </trkpt>
      <trkpt lat="59.415879594537" lon="17.972754461686">
        <ele>93.8</ele>
        <time>2019-08-26T17:46:28Z</time>
      </trkpt>
      <trkpt lat="59.416450066651" lon="17.972602078744">
        <ele>93.8</ele>
        <time>2019-08-26T17:46:36Z</time>
      </trkpt>
      <trkpt lat="59.416862037036" lon="17.972541980521">
        <ele>92.6</ele>
        <time>2019-08-26T17:46:41Z</time>
      </trkpt>
      <trkpt lat="59.417446004009" lon="17.9725035076">
        <ele>91.4</ele>
        <time>2019-08-26T17:46:48Z</time>
      </trkpt>
      <trkpt lat="59.417793266126" lon="17.972479786823">
        <ele>90.2</ele>
        <time>2019-08-26T17:46:52Z</time>
      </trkpt>
      <trkpt lat="59.418106916824" lon="17.972431087984">
        <ele>88.4</ele>
        <time>2019-08-26T17:46:55Z</time>
      </trkpt>
      <trkpt lat="59.418321158188" lon="17.972404517361">
        <ele>86.6</ele>
        <time>2019-08-26T17:46:57Z</time>
      </trkpt>
      <trkpt lat="59.418527688204" lon="17.972359255101">
        <ele>85.4</ele>
        <time>2019-08-26T17:46:59Z</time>
      </trkpt>
      <trkpt lat="59.418730111089" lon="17.972333103573">
        <ele>84.4</ele>
        <time>2019-08-26T17:47:01Z</time>
      </trkpt>
      <trkpt lat="59.419211315968" lon="17.972230425298">
        <ele>83.2</ele>
        <time>2019-08-26T17:47:06Z</time>
      </trkpt>
      <trkpt lat="59.419285411964" lon="17.972220115561">
        <ele>83.2</ele>
        <time>2019-08-26T17:47:07Z</time>
      </trkpt>
      <trkpt lat="59.419462186235" lon="17.972275939015">
        <ele>82.8</ele>
        <time>2019-08-26T17:47:10Z</time>
      </trkpt>
      <trkpt lat="59.419576515351" lon="17.972252302057">
        <ele>82.8</ele>
        <time>2019-08-26T17:47:12Z</time>
      </trkpt>
      <trkpt lat="59.419694951598" lon="17.972103271875">
        <ele>82.4</ele>
        <time>2019-08-26T17:47:14Z</time>
      </trkpt>
      <trkpt lat="59.41977273563" lon="17.971882324991">
        <ele>82.2</ele>
        <time>2019-08-26T17:47:16Z</time>
      </trkpt>
      <trkpt lat="59.420067527053" lon="17.970934499739">
        <ele>83</ele>
        <time>2019-08-26T17:47:24Z</time>
      </trkpt>
      <trkpt lat="59.420172384622" lon="17.970597128264">
        <ele>83.4</ele>
        <time>2019-08-26T17:47:27Z</time>
      </trkpt>
      <trkpt lat="59.420435576282" lon="17.969779138643">
        <ele>83.8</ele>
        <time>2019-08-26T17:47:34Z</time>
      </trkpt>
      <trkpt lat="59.420527777182" lon="17.969414945088">
        <ele>84.6</ele>
        <time>2019-08-26T17:47:37Z</time>
      </trkpt>
      <trkpt lat="59.420593491278" lon="17.969082938029">
        <ele>86.2</ele>
        <time>2019-08-26T17:47:40Z</time>
      </trkpt>
      <trkpt lat="59.420637496253" lon="17.968874061081">
        <ele>87.4</ele>
        <time>2019-08-26T17:47:42Z</time>
      </trkpt>
      <trkpt lat="59.420697594476" lon="17.968665100314">
        <ele>87.6</ele>
        <time>2019-08-26T17:47:44Z</time>
      </trkpt>
      <trkpt lat="59.4211414999" lon="17.967848367978">
        <ele>86.2</ele>
        <time>2019-08-26T17:47:53Z</time>
      </trkpt>
      <trkpt lat="59.421519775047" lon="17.967352410955">
        <ele>87.4</ele>
        <time>2019-08-26T17:47:59Z</time>
      </trkpt>
      <trkpt lat="59.421581884926" lon="17.967279404606">
        <ele>88.4</ele>
        <time>2019-08-26T17:48:00Z</time>
      </trkpt>
      <trkpt lat="59.421753043324" lon="17.967097517376">
        <ele>89.2</ele>
        <time>2019-08-26T17:48:03Z</time>
      </trkpt>
      <trkpt lat="59.421810124063" lon="17.966962904062">
        <ele>88.4</ele>
        <time>2019-08-26T17:48:05Z</time>
      </trkpt>
      <trkpt lat="59.421773159884" lon="17.96682477035">
        <ele>87.2</ele>
        <time>2019-08-26T17:48:07Z</time>
      </trkpt>
      <trkpt lat="59.421737285352" lon="17.966766013231">
        <ele>86.4</ele>
        <time>2019-08-26T17:48:10Z</time>
      </trkpt>
    </trkseg>
  </trk>
</gpx>